Time;durP1;ratioP1;P1;durP2;ratioP2;P2;SDS_P1;SDS_P2;PMS_P1;PMS_P2;Temp;Humidity;BMP_temperature;BMP_pressure;BME280_temperature;BME280_humidity;BME280_pressure;Samples;Min_cycle;Max_cycle;Signal;HPM_P1;HPM_P2
2022/07/28 00:02:25;;;;;;;3.03;1.40;;;;;;;;;;5040647;28;20037;-66
2022/07/28 00:04:50;;;;;;;6.20;1.33;;;;;;;;;;5031657;28;20112;-66
2022/07/28 00:07:16;;;;;;;3.50;1.50;;;;;;;;;;5037353;28;20512;-66
2022/07/28 00:09:41;;;;;;;4.97;1.35;;;;;;;;;;5049453;28;20029;-66
2022/07/28 00:12:07;;;;;;;6.07;1.40;;;;;;;;;;5048403;28;20040;-66
2022/07/28 00:14:33;;;;;;;3.42;1.60;;;;;;;;;;5046610;28;20031;-67
2022/07/28 00:16:58;;;;;;;4.97;1.45;;;;;;;;;;5031422;28;20104;-66
2022/07/28 00:19:24;;;;;;;6.65;2.25;;;;;;;;;;5031294;28;20113;-66
2022/07/28 00:21:49;;;;;;;3.08;1.30;;;;;;;;;;5031084;28;20200;-66
2022/07/28 00:24:15;;;;;;;2.90;1.63;;;;;;;;;;5012770;28;20041;-66
2022/07/28 00:26:40;;;;;;;1.77;1.23;;;;;;;;;;5044353;28;20512;-66
2022/07/28 00:29:07;;;;;;;3.13;1.40;;;;;;;;;;5040005;28;20040;-69
2022/07/28 00:31:32;;;;;;;4.22;1.45;;;;;;;;;;5039483;28;20441;-69
2022/07/28 00:33:58;;;;;;;4.63;1.40;;;;;;;;;;5031772;28;20455;-66
2022/07/28 00:36:23;;;;;;;5.18;1.45;;;;;;;;;;5039578;28;20032;-66
2022/07/28 00:38:49;;;;;;;2.67;1.65;;;;;;;;;;5049403;28;20486;-66
2022/07/28 00:41:15;;;;;;;3.75;1.33;;;;;;;;;;5037543;28;20060;-65
2022/07/28 00:43:46;;;;;;;2.53;1.50;;;;;;;;;;5043638;28;20072;-66
2022/07/28 00:46:13;;;;;;;3.33;1.38;;;;;;;;;;5033068;28;20033;-66
2022/07/28 00:48:42;;;;;;;3.03;1.60;;;;;;;;;;5051042;28;20032;-66
2022/07/28 00:51:08;;;;;;;2.83;1.52;;;;;;;;;;5037736;28;20040;-65
2022/07/28 00:53:36;;;;;;;4.63;1.67;;;;;;;;;;5049237;28;20033;-67
2022/07/28 00:56:01;;;;;;;5.78;1.55;;;;;;;;;;5011814;28;20136;-66
2022/07/28 00:58:27;;;;;;;3.55;1.45;;;;;;;;;;5047879;28;20112;-66
2022/07/28 01:00:52;;;;;;;2.88;1.48;;;;;;;;;;5038675;28;20037;-66
2022/07/28 01:03:18;;;;;;;7.07;1.60;;;;;;;;;;5030501;28;20038;-66
2022/07/28 01:06:16;;;;;;;4.65;1.50;;;;;;;;;;5047572;28;20115;-66
2022/07/28 01:08:59;;;;;;;7.25;1.50;;;;;;;;;;4976422;28;20159;-66
2022/07/28 01:11:47;;;;;;;4.72;1.55;;;;;;;;;;5029754;28;20033;-67
2022/07/28 01:14:30;;;;;;;4.40;1.67;;;;;;;;;;5038267;28;20092;-67
2022/07/28 01:17:05;;;;;;;3.80;1.42;;;;;;;;;;5030493;28;20041;-66
2022/07/28 01:19:48;;;;;;;3.97;1.58;;;;;;;;;;5033083;28;20044;-66
2022/07/28 01:22:20;;;;;;;3.13;1.58;;;;;;;;;;5033846;28;20397;-66
2022/07/28 01:25:02;;;;;;;3.97;1.48;;;;;;;;;;5043192;28;20030;-66
2022/07/28 01:27:49;;;;;;;5.25;1.60;;;;;;;;;;5038960;28;20036;-66
2022/07/28 01:30:52;;;;;;;5.07;1.55;;;;;;;;;;5031322;28;20124;-65
2022/07/28 01:33:23;;;;;;;4.35;1.50;;;;;;;;;;4990653;28;20488;-67
2022/07/28 01:36:05;;;;;;;2.60;1.58;;;;;;;;;;5034349;28;20045;-67
2022/07/28 01:38:33;;;;;;;5.25;1.50;;;;;;;;;;5029995;28;20075;-66
2022/07/28 01:41:01;;;;;;;7.22;1.90;;;;;;;;;;5029243;28;20094;-66
2022/07/28 01:43:30;;;;;;;5.57;1.58;;;;;;;;;;5049317;28;20392;-67
2022/07/28 01:45:57;;;;;;;3.13;1.60;;;;;;;;;;5040091;28;20087;-66
2022/07/28 01:48:25;;;;;;;6.50;1.83;;;;;;;;;;5034355;28;20029;-67
2022/07/28 01:50:53;;;;;;;3.63;1.58;;;;;;;;;;5029358;28;20373;-66
2022/07/28 01:53:20;;;;;;;6.60;1.80;;;;;;;;;;5039989;28;20105;-66
2022/07/28 01:55:48;;;;;;;4.30;1.50;;;;;;;;;;5034160;28;20052;-66
2022/07/28 01:58:15;;;;;;;3.47;1.55;;;;;;;;;;5045434;28;20044;-65
2022/07/28 02:00:42;;;;;;;5.38;1.80;;;;;;;;;;5043678;28;20045;-66
2022/07/28 02:03:09;;;;;;;4.82;1.67;;;;;;;;;;5032202;28;20041;-66
2022/07/28 02:05:36;;;;;;;7.50;1.80;;;;;;;;;;5037343;28;20032;-71
2022/07/28 02:08:03;;;;;;;4.10;1.63;;;;;;;;;;5035550;28;20162;-66
2022/07/28 02:10:30;;;;;;;6.18;1.70;;;;;;;;;;5040975;28;20037;-66
2022/07/28 02:12:59;;;;;;;3.80;1.40;;;;;;;;;;5033763;28;20033;-67
2022/07/28 02:15:27;;;;;;;3.90;1.50;;;;;;;;;;5034603;28;20046;-66
2022/07/28 02:17:53;;;;;;;6.03;1.75;;;;;;;;;;5036200;28;20159;-67
2022/07/28 02:20:19;;;;;;;9.27;2.10;;;;;;;;;;5054742;28;20036;-65
2022/07/28 02:22:46;;;;;;;5.80;1.98;;;;;;;;;;5041917;28;20033;-66
2022/07/28 02:25:12;;;;;;;5.72;1.90;;;;;;;;;;5048784;28;20033;-67
2022/07/28 02:27:59;;;;;;;8.85;2.00;;;;;;;;;;5053059;28;20033;-71
2022/07/28 02:30:42;;;;;;;4.95;2.13;;;;;;;;;;5034281;28;20029;-68
2022/07/28 02:33:13;;;;;;;5.05;1.80;;;;;;;;;;5037212;28;20029;-66
2022/07/28 02:35:47;;;;;;;6.47;2.00;;;;;;;;;;5053853;28;20047;-69
2022/07/28 02:38:19;;;;;;;3.00;1.60;;;;;;;;;;5052812;28;20558;-66
2022/07/28 02:40:47;;;;;;;5.35;1.70;;;;;;;;;;5035934;28;20037;-66
2022/07/28 02:43:15;;;;;;;6.85;2.00;;;;;;;;;;5037019;28;20126;-67
2022/07/28 02:45:44;;;;;;;4.68;1.90;;;;;;;;;;5052437;28;20579;-67
2022/07/28 02:48:13;;;;;;;9.82;1.80;;;;;;;;;;5049346;28;20037;-67
2022/07/28 02:50:41;;;;;;;5.95;1.83;;;;;;;;;;5033600;28;20474;-69
2022/07/28 02:53:08;;;;;;;5.88;1.80;;;;;;;;;;5033145;28;20125;-67
2022/07/28 02:55:34;;;;;;;7.63;2.00;;;;;;;;;;5046133;28;20068;-68
2022/07/28 02:58:00;;;;;;;3.95;1.80;;;;;;;;;;5033764;28;20127;-68
2022/07/28 03:00:27;;;;;;;6.68;1.90;;;;;;;;;;5034007;28;20069;-68
2022/07/28 03:02:55;;;;;;;4.60;1.83;;;;;;;;;;5049615;28;20589;-67
2022/07/28 03:05:21;;;;;;;4.78;1.80;;;;;;;;;;5039787;28;20036;-66
2022/07/28 03:07:58;;;;;;;3.85;1.80;;;;;;;;;;5033171;28;20068;-66
2022/07/28 03:10:25;;;;;;;4.68;1.92;;;;;;;;;;5043499;28;20108;-65
2022/07/28 03:12:51;;;;;;;3.80;2.03;;;;;;;;;;5046537;28;20044;-67
2022/07/28 03:15:17;;;;;;;3.38;1.75;;;;;;;;;;5041521;28;20440;-67
2022/07/28 03:17:42;;;;;;;4.93;1.90;;;;;;;;;;5042326;28;20470;-70
2022/07/28 03:20:09;;;;;;;6.57;1.80;;;;;;;;;;5035240;28;20112;-66
2022/07/28 03:22:35;;;;;;;6.15;1.70;;;;;;;;;;5046341;28;20025;-66
2022/07/28 03:25:03;;;;;;;4.18;1.80;;;;;;;;;;5043098;28;20043;-66
2022/07/28 03:27:35;;;;;;;5.20;2.03;;;;;;;;;;5030085;28;20068;-69
2022/07/28 03:30:26;;;;;;;4.60;1.92;;;;;;;;;;5040896;28;20044;-67
2022/07/28 03:32:58;;;;;;;5.75;2.10;;;;;;;;;;5041407;28;20041;-68
2022/07/28 03:35:24;;;;;;;4.65;1.95;;;;;;;;;;5047733;28;20413;-66
2022/07/28 03:37:57;;;;;;;7.75;1.90;;;;;;;;;;5042012;28;20113;-67
2022/07/28 03:40:28;;;;;;;3.70;1.95;;;;;;;;;;5035346;28;20028;-67
2022/07/28 03:42:56;;;;;;;5.35;1.90;;;;;;;;;;5044831;28;20449;-67
2022/07/28 03:45:22;;;;;;;5.90;2.05;;;;;;;;;;5037343;28;20037;-66
2022/07/28 03:47:52;;;;;;;6.40;1.92;;;;;;;;;;5029848;28;20040;-68
2022/07/28 03:50:21;;;;;;;6.18;2.00;;;;;;;;;;5022157;28;20041;-67
2022/07/28 03:52:47;;;;;;;7.43;1.80;;;;;;;;;;5029493;28;20037;-69
2022/07/28 03:55:14;;;;;;;4.90;1.77;;;;;;;;;;5032012;28;20048;-66
2022/07/28 03:57:39;;;;;;;9.13;2.50;;;;;;;;;;5038117;28;20484;-66
2022/07/28 04:00:05;;;;;;;6.15;2.22;;;;;;;;;;5039068;28;20029;-67
2022/07/28 04:02:31;;;;;;;5.32;2.05;;;;;;;;;;5041032;28;20034;-66
2022/07/28 04:04:56;;;;;;;6.90;2.20;;;;;;;;;;5031901;28;20481;-66
2022/07/28 04:07:21;;;;;;;5.07;2.20;;;;;;;;;;5038330;28;20036;-68
2022/07/28 04:09:47;;;;;;;4.57;2.20;;;;;;;;;;5032968;28;20034;-71
2022/07/28 04:12:12;;;;;;;5.32;1.88;;;;;;;;;;5036342;28;20029;-67
2022/07/28 04:14:38;;;;;;;4.00;1.92;;;;;;;;;;5040892;28;20060;-67
2022/07/28 04:17:03;;;;;;;4.55;1.92;;;;;;;;;;5040574;28;20550;-67
2022/07/28 04:19:29;;;;;;;8.32;2.10;;;;;;;;;;5043649;28;20056;-67
2022/07/28 04:21:54;;;;;;;5.22;2.20;;;;;;;;;;5029591;28;20037;-67
2022/07/28 04:24:19;;;;;;;6.85;2.08;;;;;;;;;;5029913;28;20083;-69
2022/07/28 04:26:45;;;;;;;9.38;2.28;;;;;;;;;;5038704;28;20389;-71
2022/07/28 04:29:10;;;;;;;6.00;2.00;;;;;;;;;;5048931;28;20040;-67
2022/07/28 04:31:36;;;;;;;4.47;2.10;;;;;;;;;;5048201;28;20071;-67
2022/07/28 04:34:01;;;;;;;5.40;2.22;;;;;;;;;;5048511;28;20064;-67
2022/07/28 04:36:27;;;;;;;6.00;2.60;;;;;;;;;;5048021;28;20461;-66
2022/07/28 04:38:52;;;;;;;6.65;2.17;;;;;;;;;;5047421;28;20025;-67
2022/07/28 04:41:18;;;;;;;7.68;2.20;;;;;;;;;;5048627;28;20431;-67
2022/07/28 04:43:44;;;;;;;5.00;1.95;;;;;;;;;;5032260;28;20041;-70
2022/07/28 04:46:09;;;;;;;5.15;2.10;;;;;;;;;;5035386;28;20029;-67
2022/07/28 04:48:35;;;;;;;4.53;2.00;;;;;;;;;;5040987;28;20373;-66
2022/07/28 04:51:00;;;;;;;6.57;2.20;;;;;;;;;;5034078;28;20167;-67
2022/07/28 04:53:27;;;;;;;4.75;2.30;;;;;;;;;;5034705;28;20178;-67
2022/07/28 04:55:54;;;;;;;4.95;2.20;;;;;;;;;;5046032;28;20082;-68
2022/07/28 04:58:19;;;;;;;4.40;2.30;;;;;;;;;;5032436;28;20021;-67
2022/07/28 05:00:45;;;;;;;3.90;2.00;;;;;;;;;;5037477;28;20028;-70
2022/07/28 05:03:11;;;;;;;5.05;2.17;;;;;;;;;;5050269;28;20114;-67
2022/07/28 05:05:36;;;;;;;4.10;2.00;;;;;;;;;;5045966;28;20497;-67
2022/07/28 05:08:01;;;;;;;6.18;2.10;;;;;;;;;;5043823;28;20038;-67
2022/07/28 05:10:27;;;;;;;6.50;2.10;;;;;;;;;;5048676;28;20033;-66
2022/07/28 05:12:53;;;;;;;4.93;2.15;;;;;;;;;;5049073;28;20082;-66
2022/07/28 05:15:19;;;;;;;6.22;2.03;;;;;;;;;;5050521;28;20036;-68
2022/07/28 05:17:44;;;;;;;7.80;2.10;;;;;;;;;;5044073;28;20036;-66
2022/07/28 05:20:12;;;;;;;5.63;2.30;;;;;;;;;;5050192;28;20123;-66
2022/07/28 05:22:45;;;;;;;5.25;1.92;;;;;;;;;;5049747;28;20032;-67
2022/07/28 05:25:18;;;;;;;4.40;2.05;;;;;;;;;;5044921;28;20033;-66
2022/07/28 05:27:47;;;;;;;5.35;2.00;;;;;;;;;;5030244;28;20524;-67
2022/07/28 05:30:14;;;;;;;4.65;1.80;;;;;;;;;;5028167;28;20033;-69
2022/07/28 05:32:40;;;;;;;4.53;1.65;;;;;;;;;;5038459;28;20029;-68
2022/07/28 05:35:06;;;;;;;5.57;1.80;;;;;;;;;;5044085;28;20492;-72
2022/07/28 05:37:35;;;;;;;6.20;1.90;;;;;;;;;;5046111;28;20037;-70
2022/07/28 05:40:02;;;;;;;7.60;2.13;;;;;;;;;;5028858;28;20036;-69
2022/07/28 05:42:34;;;;;;;6.20;1.95;;;;;;;;;;5039371;28;20025;-67
2022/07/28 05:45:00;;;;;;;5.10;1.90;;;;;;;;;;5039302;28;20102;-71
2022/07/28 05:47:26;;;;;;;9.07;1.85;;;;;;;;;;5044433;28;20033;-72
2022/07/28 05:49:51;;;;;;;4.05;2.08;;;;;;;;;;5036725;28;20040;-71
2022/07/28 05:52:16;;;;;;;6.63;2.08;;;;;;;;;;5053203;28;20481;-68
2022/07/28 05:54:42;;;;;;;3.90;1.95;;;;;;;;;;5053812;28;20052;-70
2022/07/28 05:57:07;;;;;;;3.78;1.90;;;;;;;;;;5053993;28;20166;-72
2022/07/28 05:59:32;;;;;;;6.55;2.00;;;;;;;;;;5050562;28;20511;-74
2022/07/28 06:02:00;;;;;;;4.93;1.83;;;;;;;;;;5054295;28;20196;-73
2022/07/28 06:04:25;;;;;;;3.80;2.13;;;;;;;;;;5048736;28;20036;-71
2022/07/28 06:06:51;;;;;;;5.80;2.33;;;;;;;;;;5053041;28;20044;-76
2022/07/28 06:09:16;;;;;;;5.78;2.00;;;;;;;;;;5052699;28;20068;-72
2022/07/28 06:11:42;;;;;;;7.10;2.20;;;;;;;;;;5036324;28;20030;-73
2022/07/28 06:14:07;;;;;;;5.10;1.95;;;;;;;;;;5034182;28;20627;-69
2022/07/28 06:16:32;;;;;;;7.85;2.10;;;;;;;;;;5035372;28;20033;-74
2022/07/28 06:18:58;;;;;;;4.80;1.98;;;;;;;;;;5035711;28;20074;-73
2022/07/28 06:21:23;;;;;;;7.38;2.10;;;;;;;;;;5047438;28;20029;-71
2022/07/28 06:23:49;;;;;;;6.95;2.30;;;;;;;;;;5031531;28;20029;-75
2022/07/28 06:26:14;;;;;;;7.15;2.15;;;;;;;;;;5034151;28;20037;-70
2022/07/28 06:28:39;;;;;;;6.28;2.17;;;;;;;;;;5043157;28;20040;-70
2022/07/28 06:31:05;;;;;;;5.53;2.20;;;;;;;;;;5048560;28;20130;-71
2022/07/28 06:33:30;;;;;;;4.57;2.08;;;;;;;;;;5049204;28;20032;-70
2022/07/28 06:35:56;;;;;;;5.70;2.03;;;;;;;;;;5047694;28;20037;-71
2022/07/28 06:38:21;;;;;;;8.77;2.05;;;;;;;;;;5034639;28;20104;-71
2022/07/28 06:40:47;;;;;;;4.65;1.92;;;;;;;;;;5037741;28;20036;-70
2022/07/28 06:43:13;;;;;;;6.43;2.00;;;;;;;;;;5053528;28;20514;-69
2022/07/28 06:45:39;;;;;;;4.88;1.88;;;;;;;;;;5047004;28;20048;-71
2022/07/28 06:48:06;;;;;;;7.40;2.00;;;;;;;;;;5052997;28;20025;-71
2022/07/28 06:50:32;;;;;;;4.68;1.80;;;;;;;;;;5050247;28;20133;-71
2022/07/28 06:52:57;;;;;;;6.53;1.95;;;;;;;;;;5042601;28;20037;-72
2022/07/28 06:55:23;;;;;;;5.18;2.03;;;;;;;;;;5032684;28;20041;-72
2022/07/28 06:57:48;;;;;;;5.57;1.80;;;;;;;;;;5035880;28;20141;-73
2022/07/28 07:00:14;;;;;;;6.85;1.92;;;;;;;;;;5035888;28;20029;-70
2022/07/28 07:02:41;;;;;;;3.05;1.70;;;;;;;;;;5034963;28;20025;-71
2022/07/28 07:05:07;;;;;;;6.55;1.70;;;;;;;;;;5029273;28;20033;-71
2022/07/28 07:07:33;;;;;;;5.75;1.60;;;;;;;;;;5033984;28;20113;-73
2022/07/28 07:09:58;;;;;;;3.90;1.77;;;;;;;;;;5039550;28;20112;-73
2022/07/28 07:12:24;;;;;;;5.03;1.85;;;;;;;;;;5033779;28;20079;-72
2022/07/28 07:14:49;;;;;;;5.05;1.50;;;;;;;;;;5033310;28;20113;-76
2022/07/28 07:17:15;;;;;;;2.38;1.45;;;;;;;;;;5033595;28;20385;-73
2022/07/28 07:19:40;;;;;;;7.10;1.70;;;;;;;;;;5034418;28;20477;-65
2022/07/28 07:22:06;;;;;;;5.00;1.60;;;;;;;;;;5039373;28;20510;-66
2022/07/28 07:24:31;;;;;;;4.15;1.60;;;;;;;;;;5037529;28;20040;-65
2022/07/28 07:26:57;;;;;;;4.68;1.70;;;;;;;;;;5033382;28;20071;-67
2022/07/28 07:29:23;;;;;;;5.13;1.70;;;;;;;;;;5047820;28;20058;-65
2022/07/28 07:31:49;;;;;;;5.18;1.55;;;;;;;;;;5050512;28;20112;-65
2022/07/28 07:34:15;;;;;;;3.83;1.65;;;;;;;;;;5052089;28;20215;-64
2022/07/28 07:36:40;;;;;;;4.70;1.60;;;;;;;;;;5049092;28;20036;-67
2022/07/28 07:39:06;;;;;;;3.83;1.40;;;;;;;;;;5052891;28;20021;-64
2022/07/28 07:41:31;;;;;;;3.28;1.40;;;;;;;;;;5050970;28;20083;-66
2022/07/28 07:43:56;;;;;;;4.72;1.63;;;;;;;;;;5049553;28;20091;-66
2022/07/28 07:46:22;;;;;;;5.70;1.42;;;;;;;;;;5052666;28;20033;-66
2022/07/28 07:48:47;;;;;;;8.43;1.75;;;;;;;;;;5051990;28;20058;-67
2022/07/28 07:51:13;;;;;;;6.72;1.55;;;;;;;;;;5039152;28;20037;-66
2022/07/28 07:53:38;;;;;;;4.93;1.58;;;;;;;;;;5046358;28;20033;-64
2022/07/28 07:56:04;;;;;;;5.53;1.55;;;;;;;;;;5041352;28;20046;-64
2022/07/28 07:58:29;;;;;;;2.70;1.52;;;;;;;;;;5032537;28;20120;-63
2022/07/28 08:00:55;;;;;;;5.75;1.52;;;;;;;;;;5018605;28;20061;-61
2022/07/28 08:03:21;;;;;;;4.13;1.60;;;;;;;;;;5032132;28;20116;-67
2022/07/28 08:05:48;;;;;;;5.97;1.50;;;;;;;;;;5034756;28;20048;-67
2022/07/28 08:08:13;;;;;;;5.00;1.63;;;;;;;;;;5047584;28;20033;-66
2022/07/28 08:10:39;;;;;;;3.83;1.63;;;;;;;;;;5032813;28;20083;-63
2022/07/28 08:13:06;;;;;;;5.38;1.60;;;;;;;;;;5040392;28;20028;-66
2022/07/28 08:15:32;;;;;;;5.47;1.60;;;;;;;;;;5052221;28;20072;-65
2022/07/28 08:17:58;;;;;;;3.85;1.60;;;;;;;;;;5046837;28;20029;-66
2022/07/28 08:20:23;;;;;;;4.53;1.55;;;;;;;;;;5050044;28;20082;-66
2022/07/28 08:22:53;;;;;;;7.60;1.80;;;;;;;;;;5051909;28;20025;-66
2022/07/28 08:25:19;;;;;;;2.67;1.52;;;;;;;;;;5050577;28;20036;-65
2022/07/28 08:27:45;;;;;;;8.43;1.80;;;;;;;;;;5052362;28;20033;-65
2022/07/28 08:30:13;;;;;;;3.58;1.55;;;;;;;;;;5044870;28;20167;-65
2022/07/28 08:32:39;;;;;;;5.05;1.80;;;;;;;;;;5032754;28;20057;-65
2022/07/28 08:35:05;;;;;;;5.55;1.65;;;;;;;;;;5040555;28;20072;-63
2022/07/28 08:37:31;;;;;;;5.93;1.80;;;;;;;;;;5042192;28;20543;-60
2022/07/28 08:39:56;;;;;;;3.40;1.60;;;;;;;;;;5031448;28;20120;-64
2022/07/28 08:42:48;;;;;;;4.63;1.70;;;;;;;;;;5042520;28;20033;-65
2022/07/28 08:45:14;;;;;;;6.80;1.77;;;;;;;;;;5044016;28;20048;-63
2022/07/28 08:47:41;;;;;;;4.10;1.35;;;;;;;;;;5048553;28;20031;-63
2022/07/28 08:50:09;;;;;;;5.30;1.60;;;;;;;;;;5051114;28;20446;-61
2022/07/28 08:52:36;;;;;;;5.32;1.70;;;;;;;;;;5051220;28;20032;-65
2022/07/28 08:55:05;;;;;;;5.18;1.73;;;;;;;;;;5051499;28;20037;-65
2022/07/28 08:57:34;;;;;;;3.72;1.67;;;;;;;;;;5029042;28;20090;-65
2022/07/28 09:00:00;;;;;;;5.85;1.70;;;;;;;;;;5031093;28;20059;-65
2022/07/28 09:02:27;;;;;;;5.05;1.65;;;;;;;;;;5036996;28;20033;-66
2022/07/28 09:04:54;;;;;;;7.20;1.65;;;;;;;;;;5031661;28;20458;-62
2022/07/28 09:07:19;;;;;;;7.43;1.95;;;;;;;;;;5032737;28;20481;-61
2022/07/28 09:09:48;;;;;;;4.47;1.60;;;;;;;;;;5042594;28;20060;-61
2022/07/28 09:12:13;;;;;;;8.40;1.80;;;;;;;;;;5047290;28;20029;-65
2022/07/28 09:14:39;;;;;;;8.00;1.58;;;;;;;;;;5029224;28;20040;-64
2022/07/28 09:17:04;;;;;;;5.03;1.73;;;;;;;;;;5045149;28;20035;-63
2022/07/28 09:19:30;;;;;;;6.45;1.70;;;;;;;;;;5050617;28;20090;-61
2022/07/28 09:21:56;;;;;;;6.10;1.67;;;;;;;;;;5050383;28;20059;-66
2022/07/28 09:24:43;;;;;;;4.15;1.60;;;;;;;;;;5050541;28;20044;-63
2022/07/28 09:27:12;;;;;;;4.53;1.58;;;;;;;;;;5050486;28;20126;-64
2022/07/28 09:29:40;;;;;;;5.95;1.48;;;;;;;;;;5037955;28;20037;-61
2022/07/28 09:32:06;;;;;;;5.75;1.50;;;;;;;;;;5043347;28;20036;-62
2022/07/28 09:34:44;;;;;;;5.55;1.50;;;;;;;;;;5049851;28;20045;-63
2022/07/28 09:37:20;;;;;;;2.88;1.55;;;;;;;;;;5050777;28;20219;-62
2022/07/28 09:39:46;;;;;;;4.07;1.35;;;;;;;;;;5031524;28;20034;-63
2022/07/28 09:42:12;;;;;;;6.00;1.80;;;;;;;;;;5030601;28;20049;-63
2022/07/28 09:44:38;;;;;;;4.15;1.77;;;;;;;;;;5050205;28;20037;-63
2022/07/28 09:47:27;;;;;;;3.72;1.50;;;;;;;;;;5029295;28;20124;-64
2022/07/28 09:49:53;;;;;;;4.82;1.70;;;;;;;;;;5030502;28;20026;-67
2022/07/28 09:52:35;;;;;;;7.95;1.60;;;;;;;;;;5018521;28;20029;-64
2022/07/28 09:55:06;;;;;;;5.05;1.55;;;;;;;;;;5030330;28;20038;-66
2022/07/28 09:57:34;;;;;;;6.72;1.75;;;;;;;;;;5026395;28;20148;-63
2022/07/28 10:00:00;;;;;;;4.65;1.63;;;;;;;;;;5029140;28;20091;-65
2022/07/28 10:02:28;;;;;;;5.88;1.70;;;;;;;;;;5032521;28;20033;-63
2022/07/28 10:04:54;;;;;;;5.32;1.42;;;;;;;;;;5039077;28;20037;-66
2022/07/28 10:07:20;;;;;;;4.35;1.40;;;;;;;;;;5041055;28;20025;-64
2022/07/28 10:10:01;;;;;;;5.22;1.52;;;;;;;;;;5049302;28;20129;-65
2022/07/28 10:12:29;;;;;;;4.55;1.50;;;;;;;;;;5051287;28;20367;-61
2022/07/28 10:14:58;;;;;;;4.07;1.80;;;;;;;;;;5029259;28;20040;-65
2022/07/28 10:17:32;;;;;;;5.28;1.73;;;;;;;;;;5051138;28;20074;-65
2022/07/28 10:20:01;;;;;;;5.50;1.85;;;;;;;;;;5045765;28;20521;-66
2022/07/28 10:22:31;;;;;;;2.72;1.50;;;;;;;;;;5050950;28;20033;-65
2022/07/28 10:24:59;;;;;;;3.83;1.55;;;;;;;;;;5042624;28;21445;-63
2022/07/28 10:27:25;;;;;;;3.90;1.60;;;;;;;;;;5050877;28;20124;-62
2022/07/28 10:29:56;;;;;;;3.97;1.67;;;;;;;;;;5046056;28;20097;-66
2022/07/28 10:32:21;;;;;;;4.45;1.50;;;;;;;;;;5052216;28;20112;-65
2022/07/28 10:34:50;;;;;;;7.72;1.60;;;;;;;;;;5050389;28;20180;-65
2022/07/28 10:37:24;;;;;;;7.47;1.70;;;;;;;;;;5054017;28;20036;-64
2022/07/28 10:40:09;;;;;;;3.53;1.52;;;;;;;;;;5045897;28;20377;-64
2022/07/28 10:42:37;;;;;;;5.43;1.50;;;;;;;;;;5053521;28;20041;-64
2022/07/28 10:45:03;;;;;;;3.85;1.60;;;;;;;;;;5052205;28;20033;-64
2022/07/28 10:47:29;;;;;;;6.15;1.50;;;;;;;;;;5054374;28;20033;-63
2022/07/28 10:49:55;;;;;;;6.72;1.77;;;;;;;;;;5030634;28;20029;-64
2022/07/28 10:52:21;;;;;;;6.90;1.60;;;;;;;;;;5034544;28;20065;-62
2022/07/28 10:54:49;;;;;;;5.07;1.60;;;;;;;;;;5031754;28;20101;-63
2022/07/28 10:57:15;;;;;;;5.70;1.55;;;;;;;;;;5051148;28;20120;-64
2022/07/28 10:59:52;;;;;;;4.15;1.48;;;;;;;;;;5044002;28;20041;-64
2022/07/28 11:02:53;;;;;;;6.28;1.50;;;;;;;;;;5035461;28;20026;-64
2022/07/28 11:05:31;;;;;;;3.88;1.52;;;;;;;;;;5038212;28;20026;-65
2022/07/28 11:08:02;;;;;;;5.65;1.70;;;;;;;;;;5043012;28;20029;-66
2022/07/28 11:10:28;;;;;;;;;;;;;;;;;;5052597;28;20033;-64
2022/07/28 11:12:55;;;;;;;3.78;1.55;;;;;;;;;;5035360;28;19947;-64
2022/07/28 11:15:32;;;;;;;6.25;1.70;;;;;;;;;;5032110;28;20061;-65
2022/07/28 11:17:58;;;;;;;5.35;1.65;;;;;;;;;;5052911;28;20037;-65
2022/07/28 11:20:51;;;;;;;3.78;1.45;;;;;;;;;;5021496;28;20040;-64
2022/07/28 11:23:39;;;;;;;5.95;1.50;;;;;;;;;;5033280;28;20496;-64
2022/07/28 11:26:23;;;;;;;5.85;1.75;;;;;;;;;;5029018;28;20033;-65
2022/07/28 11:29:19;;;;;;;5.93;1.60;;;;;;;;;;5015111;28;20363;-65
2022/07/28 11:31:44;;;;;;;3.90;1.50;;;;;;;;;;5033610;28;20026;-65
2022/07/28 11:34:20;;;;;;;5.28;1.15;;;;;;;;;;5032300;28;20029;-64
2022/07/28 11:37:07;;;;;;;6.57;1.45;;;;;;;;;;5045264;28;20029;-63
2022/07/28 11:39:34;;;;;;;4.07;1.40;;;;;;;;;;5049217;28;20040;-63
2022/07/28 11:42:26;;;;;;;4.68;1.58;;;;;;;;;;5043911;28;20053;-63
2022/07/28 11:44:53;;;;;;;7.85;1.58;;;;;;;;;;5032653;28;20444;-63
2022/07/28 11:47:24;;;;;;;6.78;1.50;;;;;;;;;;5034920;28;20044;-63
2022/07/28 11:50:07;;;;;;;;;;;;;;;;;;5051556;28;20036;-64
2022/07/28 11:52:34;;;;;;;5.47;1.60;;;;;;;;;;5043799;28;19912;-64
2022/07/28 11:55:00;;;;;;;3.85;1.50;;;;;;;;;;5037466;28;20034;-65
2022/07/28 11:57:26;;;;;;;4.05;1.40;;;;;;;;;;5033373;28;20053;-66
2022/07/28 11:59:54;;;;;;;4.78;1.63;;;;;;;;;;5040199;28;20068;-65
2022/07/28 12:02:23;;;;;;;4.18;1.50;;;;;;;;;;5045463;28;20044;-65
2022/07/28 12:05:01;;;;;;;6.28;1.70;;;;;;;;;;5049440;28;20071;-64
2022/07/28 12:07:33;;;;;;;4.82;1.45;;;;;;;;;;5039825;28;20040;-64
2022/07/28 12:10:00;;;;;;;4.70;1.30;;;;;;;;;;5041903;28;20052;-62
2022/07/28 12:12:26;;;;;;;6.63;1.70;;;;;;;;;;5045647;28;20041;-64
2022/07/28 12:14:54;;;;;;;3.72;1.30;;;;;;;;;;5031918;28;20088;-65
2022/07/28 12:17:21;;;;;;;2.75;1.20;;;;;;;;;;5036767;28;20432;-62
2022/07/28 12:19:46;;;;;;;6.25;1.50;;;;;;;;;;5052535;28;20033;-62
2022/07/28 12:22:12;;;;;;;3.45;1.40;;;;;;;;;;5050849;28;20079;-66
2022/07/28 12:24:37;;;;;;;2.90;1.40;;;;;;;;;;5047833;28;20362;-65
2022/07/28 12:27:03;;;;;;;5.78;1.77;;;;;;;;;;5050648;28;20377;-65
2022/07/28 12:29:32;;;;;;;7.22;1.55;;;;;;;;;;5051378;28;20029;-65
2022/07/28 12:32:01;;;;;;;5.35;1.38;;;;;;;;;;5051137;28;20473;-66
2022/07/28 12:34:27;;;;;;;7.68;1.50;;;;;;;;;;5027625;28;20032;-64
2022/07/28 12:37:00;;;;;;;3.92;1.55;;;;;;;;;;5051632;28;20033;-65
2022/07/28 12:39:26;;;;;;;5.10;1.75;;;;;;;;;;5051176;28;20477;-64
2022/07/28 12:42:06;;;;;;;8.73;1.60;;;;;;;;;;5038688;28;20038;-66
2022/07/28 12:44:36;;;;;;;7.63;1.67;;;;;;;;;;5031426;28;20025;-64
2022/07/28 12:47:02;;;;;;;5.40;1.60;;;;;;;;;;5051775;28;20488;-65
2022/07/28 12:49:28;;;;;;;5.20;1.38;;;;;;;;;;5046385;28;20363;-65
2022/07/28 12:51:53;;;;;;;8.23;1.42;;;;;;;;;;5048643;28;20484;-66
2022/07/28 12:54:33;;;;;;;4.90;1.55;;;;;;;;;;5051996;28;20025;-67
2022/07/28 12:56:58;;;;;;;2.90;1.33;;;;;;;;;;5051305;28;20045;-66
2022/07/28 12:59:31;;;;;;;4.53;1.60;;;;;;;;;;5051586;28;20496;-66
2022/07/28 13:01:57;;;;;;;3.25;1.40;;;;;;;;;;5049469;28;20505;-67
2022/07/28 13:04:43;;;;;;;4.35;1.50;;;;;;;;;;5047447;28;20033;-65
2022/07/28 13:07:20;;;;;;;5.43;1.42;;;;;;;;;;5051161;28;20043;-66
2022/07/28 13:09:48;;;;;;;4.07;1.67;;;;;;;;;;5038610;28;20025;-67
2022/07/28 13:12:16;;;;;;;3.78;1.33;;;;;;;;;;5030792;28;20042;-66
2022/07/28 13:14:43;;;;;;;2.60;1.40;;;;;;;;;;5042125;28;20193;-65
2022/07/28 13:17:09;;;;;;;6.55;1.70;;;;;;;;;;5044098;28;20035;-65
2022/07/28 13:19:35;;;;;;;5.53;1.55;;;;;;;;;;5044134;28;20036;-65
2022/07/28 13:22:00;;;;;;;5.95;1.40;;;;;;;;;;5035638;28;20033;-65
2022/07/28 13:24:28;;;;;;;6.63;1.77;;;;;;;;;;5051285;28;20040;-66
2022/07/28 13:26:53;;;;;;;4.38;1.50;;;;;;;;;;5040337;28;20021;-65
2022/07/28 13:29:19;;;;;;;7.35;1.60;;;;;;;;;;5031820;28;20462;-65
2022/07/28 13:31:45;;;;;;;4.28;1.50;;;;;;;;;;5038971;28;20039;-65
2022/07/28 13:34:10;;;;;;;3.85;1.30;;;;;;;;;;5046198;28;20025;-65
2022/07/28 13:36:37;;;;;;;3.67;1.50;;;;;;;;;;5038488;28;20025;-66
2022/07/28 13:39:04;;;;;;;5.97;1.58;;;;;;;;;;5050273;28;20072;-65
2022/07/28 13:41:29;;;;;;;4.63;1.42;;;;;;;;;;5027534;28;20116;-64
2022/07/28 13:43:57;;;;;;;2.92;1.33;;;;;;;;;;5030238;28;20116;-65
2022/07/28 13:46:27;;;;;;;5.18;1.58;;;;;;;;;;5030984;28;20026;-64
2022/07/28 13:48:53;;;;;;;4.90;1.75;;;;;;;;;;5012674;28;20440;-67
2022/07/28 13:51:18;;;;;;;2.38;1.30;;;;;;;;;;5031511;28;20522;-65
2022/07/28 13:53:44;;;;;;;4.55;1.80;;;;;;;;;;5031560;28;20036;-63
2022/07/28 13:56:10;;;;;;;7.25;1.58;;;;;;;;;;5047130;28;20045;-64
2022/07/28 13:58:36;;;;;;;4.55;1.40;;;;;;;;;;5041460;28;20104;-65
2022/07/28 14:01:02;;;;;;;5.85;1.50;;;;;;;;;;5030641;28;20103;-64
2022/07/28 14:03:29;;;;;;;3.55;1.40;;;;;;;;;;5046513;28;20041;-64
2022/07/28 14:05:55;;;;;;;4.47;1.45;;;;;;;;;;5049872;28;20040;-64
2022/07/28 14:08:20;;;;;;;3.22;1.27;;;;;;;;;;5038004;28;20033;-63
2022/07/28 14:10:47;;;;;;;3.33;1.50;;;;;;;;;;5019193;28;20029;-67
2022/07/28 14:13:13;;;;;;;3.55;1.40;;;;;;;;;;5043735;28;20048;-63
2022/07/28 14:15:39;;;;;;;4.82;1.50;;;;;;;;;;5055039;28;20036;-66
2022/07/28 14:18:05;;;;;;;3.83;1.30;;;;;;;;;;5040962;28;20355;-65
2022/07/28 14:20:31;;;;;;;5.05;1.40;;;;;;;;;;5034834;28;20037;-64
2022/07/28 14:22:59;;;;;;;6.50;1.60;;;;;;;;;;5038156;28;20033;-65
2022/07/28 14:25:25;;;;;;;5.60;1.55;;;;;;;;;;5034749;28;20392;-65
2022/07/28 14:27:52;;;;;;;5.20;1.35;;;;;;;;;;5042643;28;20517;-66
2022/07/28 14:30:19;;;;;;;6.50;1.52;;;;;;;;;;5050380;28;20060;-64
2022/07/28 14:32:44;;;;;;;5.50;1.70;;;;;;;;;;5030322;28;20029;-65
2022/07/28 14:35:10;;;;;;;5.97;1.60;;;;;;;;;;5043388;28;20040;-64
2022/07/28 14:37:35;;;;;;;7.53;1.70;;;;;;;;;;5034728;28;20113;-64
2022/07/28 14:40:01;;;;;;;5.07;1.40;;;;;;;;;;5039452;28;20363;-62
2022/07/28 14:42:26;;;;;;;5.50;1.52;;;;;;;;;;5040091;28;20029;-63
2022/07/28 14:44:52;;;;;;;6.28;1.52;;;;;;;;;;5034631;28;20033;-64
2022/07/28 14:47:18;;;;;;;3.83;1.48;;;;;;;;;;5034811;28;20029;-63
2022/07/28 14:49:44;;;;;;;4.93;2.00;;;;;;;;;;5037778;28;20040;-63
2022/07/28 14:52:10;;;;;;;8.25;1.60;;;;;;;;;;5053596;28;20063;-64